createdAt,value
2023-01-06T00:00:40.868Z,25.92
2023-01-06T00:03:09.236Z,30.42
2023-01-06T00:05:36.158Z,29.98
2023-01-06T00:08:02.985Z,25.77
2023-01-06T00:10:29.772Z,24.02
2023-01-06T00:12:56.273Z,22.70
2023-01-06T00:15:22.861Z,27.23
2023-01-06T00:17:49.413Z,25.75
2023-01-06T00:20:15.989Z,24.08
2023-01-06T00:22:42.838Z,24.45
2023-01-06T00:25:12.783Z,23.48
2023-01-06T00:27:39.929Z,23.30
2023-01-06T00:30:08.210Z,21.02
2023-01-06T00:32:35.418Z,19.73
2023-01-06T00:35:02.714Z,19.80
2023-01-06T00:37:29.348Z,22.33
2023-01-06T00:39:55.829Z,18.35
2023-01-06T00:42:22.768Z,21.10
2023-01-06T00:44:49.768Z,21.80
2023-01-06T00:47:16.747Z,18.25
2023-01-06T00:49:43.305Z,17.73
2023-01-06T00:52:10.112Z,18.20
2023-01-06T00:54:39.651Z,17.38
2023-01-06T00:57:07.586Z,18.02
2023-01-06T00:59:34.625Z,13.10
2023-01-06T01:02:01.612Z,17.83
2023-01-06T01:04:29.122Z,20.52
2023-01-06T01:06:56.233Z,16.17
2023-01-06T01:09:25.554Z,13.93
2023-01-06T01:12:12.054Z,17.48
2023-01-06T01:14:49.918Z,14.35
2023-01-06T01:17:19.774Z,15.18
2023-01-06T01:19:47.427Z,13.65
2023-01-06T01:22:14.291Z,15.65
2023-01-06T01:24:40.975Z,16.08
2023-01-06T01:27:07.567Z,16.67
2023-01-06T01:29:34.132Z,14.52
2023-01-06T01:32:01.096Z,13.07
2023-01-06T01:34:28.016Z,14.00
2023-01-06T01:36:55.332Z,12.65
2023-01-06T01:39:28.705Z,12.30
2023-01-06T01:41:57.127Z,13.23
2023-01-06T01:45:01.548Z,17.33
2023-01-06T01:47:37.426Z,11.57
2023-01-06T01:50:14.281Z,12.40
2023-01-06T01:52:45.149Z,10.88
2023-01-06T01:55:13.447Z,10.63
2023-01-06T01:57:49.023Z,11.55
2023-01-06T02:00:17.404Z,7.75
2023-01-06T02:02:44.455Z,9.32
2023-01-06T02:05:13.914Z,10.60
2023-01-06T02:07:41.073Z,12.38
2023-01-06T02:10:07.539Z,9.35
2023-01-06T02:12:34.324Z,8.80
2023-01-06T02:15:00.876Z,14.05
2023-01-06T02:18:04.632Z,9.02
2023-01-06T02:20:45.822Z,8.70
2023-01-06T02:23:34.012Z,8.05
2023-01-06T02:26:09.481Z,7.63
2023-01-06T02:28:54.534Z,6.80
2023-01-06T02:31:24.008Z,6.68
2023-01-06T02:33:50.463Z,7.20
2023-01-06T02:36:16.894Z,8.70
2023-01-06T02:39:05.125Z,6.32
2023-01-06T02:41:54.635Z,8.50
2023-01-06T02:44:30.874Z,6.30
2023-01-06T02:47:27.277Z,7.53
2023-01-06T02:50:07.479Z,6.90
2023-01-06T02:53:13.686Z,7.47
2023-01-06T02:55:52.379Z,7.40
2023-01-06T02:58:42.430Z,6.57
2023-01-06T03:01:24.423Z,8.02
2023-01-06T03:03:53.207Z,6.72
2023-01-06T03:06:26.442Z,6.60
2023-01-06T03:08:55.243Z,6.70
2023-01-06T03:11:22.989Z,5.15
2023-01-06T03:13:55.441Z,6.53
2023-01-06T03:16:22.162Z,4.47
2023-01-06T03:18:51.100Z,5.28
2023-01-06T03:21:21.404Z,5.82
2023-01-06T03:23:48.052Z,5.45
2023-01-06T03:26:15.159Z,4.38
2023-01-06T03:28:41.677Z,5.85
2023-01-06T03:31:16.637Z,7.07
2023-01-06T03:34:00.792Z,3.90
2023-01-06T03:36:52.218Z,4.75
2023-01-06T03:39:26.345Z,6.05
2023-01-06T03:42:43.703Z,5.97
2023-01-06T03:45:38.492Z,4.10
2023-01-06T03:48:18.031Z,3.28
2023-01-06T03:51:07.243Z,5.30
2023-01-06T03:53:50.543Z,5.13
2023-01-06T03:56:21.563Z,5.03
2023-01-06T03:58:53.340Z,3.22
2023-01-06T04:01:21.167Z,4.40
2023-01-06T04:03:48.585Z,4.43
2023-01-06T04:06:15.125Z,5.45
2023-01-06T04:08:41.700Z,4.97
2023-01-06T04:11:08.220Z,4.03
2023-01-06T04:13:34.708Z,4.93
2023-01-06T04:16:01.222Z,3.17
2023-01-06T04:18:27.723Z,4.57
2023-01-06T04:20:54.196Z,3.30
2023-01-06T04:23:20.733Z,3.42
2023-01-06T04:25:47.274Z,6.80
2023-01-06T04:28:13.821Z,3.15
2023-01-06T04:30:40.309Z,3.83
2023-01-06T04:33:06.804Z,2.53
2023-01-06T04:35:33.307Z,3.67
2023-01-06T04:38:02.453Z,6.53
2023-01-06T04:40:28.958Z,3.80
2023-01-06T04:43:04.631Z,4.97
2023-01-06T04:45:31.431Z,2.45
2023-01-06T04:47:57.982Z,7.30
2023-01-06T04:50:24.486Z,2.83
2023-01-06T04:52:50.973Z,2.65
2023-01-06T04:55:17.580Z,2.72
2023-01-06T04:57:44.174Z,2.10
2023-01-06T05:00:11.310Z,3.03
2023-01-06T05:02:37.784Z,4.38
2023-01-06T05:05:04.619Z,2.80
2023-01-06T05:07:31.162Z,3.28
2023-01-06T05:09:57.623Z,4.18
2023-01-06T05:12:24.129Z,1.83
2023-01-06T05:14:50.617Z,2.65
2023-01-06T05:17:17.153Z,2.30
2023-01-06T05:19:44.448Z,1.98
2023-01-06T05:22:11.812Z,1.65
2023-01-06T05:24:38.536Z,1.27
2023-01-06T05:27:05.301Z,2.80
2023-01-06T05:29:31.944Z,2.05
2023-01-06T05:31:58.932Z,6.47
2023-01-06T05:34:25.669Z,2.50
2023-01-06T05:36:52.253Z,2.67
2023-01-06T05:39:18.849Z,3.78
2023-01-06T05:41:45.498Z,3.13
2023-01-06T05:44:12.034Z,5.32
2023-01-06T05:46:38.581Z,3.70
2023-01-06T05:49:05.207Z,1.77
2023-01-06T05:51:31.796Z,3.95
2023-01-06T05:53:58.302Z,2.75
2023-01-06T05:56:24.846Z,2.72
2023-01-06T05:58:53.397Z,2.28
2023-01-06T06:01:28.474Z,2.50
2023-01-06T06:03:55.784Z,2.83
2023-01-06T06:06:24.217Z,2.72
2023-01-06T06:08:51.054Z,2.00
2023-01-06T06:11:19.328Z,2.22
2023-01-06T06:13:51.087Z,2.63
2023-01-06T06:16:19.859Z,2.15
2023-01-06T06:18:53.915Z,4.57
2023-01-06T06:21:23.122Z,3.40
2023-01-06T06:23:49.939Z,2.65
2023-01-06T06:26:16.645Z,1.90
2023-01-06T06:28:43.227Z,5.47
2023-01-06T06:31:14.215Z,1.45
2023-01-06T06:33:41.068Z,1.63
2023-01-06T06:36:15.580Z,2.13
2023-01-06T06:38:43.472Z,1.75
2023-01-06T06:41:10.075Z,1.30
2023-01-06T06:43:36.890Z,1.13
2023-01-06T06:46:03.679Z,1.92
2023-01-06T06:48:30.643Z,1.40
2023-01-06T06:51:26.617Z,2.00
2023-01-06T06:53:53.100Z,1.65
2023-01-06T06:56:21.105Z,1.65
2023-01-06T06:58:48.234Z,1.17
2023-01-06T07:01:17.248Z,1.45
2023-01-06T07:03:44.406Z,2.53
2023-01-06T07:06:14.304Z,2.60
2023-01-06T07:08:45.051Z,2.00
2023-01-06T07:11:11.843Z,2.00
2023-01-06T07:13:38.397Z,1.80
2023-01-06T07:16:05.725Z,1.30
2023-01-06T07:18:32.259Z,2.50
2023-01-06T07:20:58.820Z,2.08
2023-01-06T07:23:25.479Z,1.58
2023-01-06T07:25:56.928Z,0.98
2023-01-06T07:28:24.625Z,2.80
2023-01-06T07:30:51.546Z,1.95
2023-01-06T07:33:19.360Z,2.88
2023-01-06T07:35:45.924Z,1.25
2023-01-06T07:38:12.650Z,1.20
2023-01-06T07:40:39.305Z,1.50
2023-01-06T07:43:07.983Z,0.98
2023-01-06T07:45:35.030Z,1.05
2023-01-06T07:48:02.136Z,1.27
2023-01-06T07:50:29.247Z,1.83
2023-01-06T07:53:01.186Z,1.08
2023-01-06T07:55:28.199Z,1.55
2023-01-06T07:57:54.775Z,1.85
2023-01-06T08:00:21.607Z,1.38
2023-01-06T08:02:48.687Z,1.08
2023-01-06T08:05:15.279Z,1.88
2023-01-06T08:07:41.839Z,1.23
2023-01-06T08:10:08.722Z,2.17
2023-01-06T08:12:35.942Z,8.15
2023-01-06T08:15:03.483Z,2.65
2023-01-06T08:17:30.705Z,1.60
2023-01-06T08:19:57.563Z,1.50
2023-01-06T08:22:24.439Z,2.67
2023-01-06T08:24:50.963Z,1.42
2023-01-06T08:27:18.245Z,3.65
2023-01-06T08:29:44.726Z,4.57
2023-01-06T08:32:11.289Z,11.07
2023-01-06T08:34:38.246Z,14.38
2023-01-06T08:37:04.892Z,15.52
2023-01-06T08:39:31.659Z,17.73
2023-01-06T08:41:58.166Z,19.50
2023-01-06T08:44:24.725Z,21.98
2023-01-06T08:46:51.211Z,22.23
2023-01-06T08:49:17.743Z,20.67
2023-01-06T08:51:44.269Z,22.88
2023-01-06T08:54:10.781Z,22.90
2023-01-06T08:56:39.306Z,25.02
2023-01-06T08:59:06.270Z,21.40
2023-01-06T09:01:35.976Z,21.65
2023-01-06T09:04:05.666Z,22.42
2023-01-06T09:06:32.244Z,23.13
2023-01-06T09:09:00.257Z,21.30
2023-01-06T09:11:27.287Z,20.55
2023-01-06T09:13:54.156Z,22.17
2023-01-06T09:16:21.753Z,20.55
2023-01-06T09:18:49.963Z,21.27
2023-01-06T09:21:18.556Z,24.63
2023-01-06T09:23:45.236Z,24.45
2023-01-06T09:26:12.450Z,20.38
2023-01-06T09:28:39.141Z,28.35
2023-01-06T09:31:05.707Z,38.17
2023-01-06T09:33:32.319Z,34.35
2023-01-06T09:35:58.904Z,34.85
2023-01-06T09:38:26.278Z,33.88
2023-01-06T09:41:15.062Z,32.33
2023-01-06T09:44:13.091Z,35.13
2023-01-06T09:46:43.861Z,39.05
2023-01-06T09:49:33.593Z,32.80
2023-01-06T09:52:04.783Z,36.67
2023-01-06T09:54:52.248Z,33.63
2023-01-06T09:57:45.812Z,47.13
2023-01-06T10:00:49.494Z,37.22
2023-01-06T10:03:19.716Z,39.13
2023-01-06T10:06:20.587Z,37.80
2023-01-06T10:08:59.363Z,38.42
2023-01-06T10:11:32.657Z,38.38
2023-01-06T10:14:06.879Z,33.45
2023-01-06T10:16:48.103Z,33.00
2023-01-06T10:19:36.361Z,38.97
2023-01-06T10:22:47.912Z,35.20
2023-01-06T10:25:32.953Z,32.83
2023-01-06T10:28:19.548Z,33.53
2023-01-06T10:30:50.462Z,32.85
2023-01-06T10:35:55.267Z,31.55
2023-01-06T10:38:37.307Z,34.33
2023-01-06T10:41:38.012Z,33.08
2023-01-06T10:44:05.821Z,31.38
2023-01-06T10:46:36.418Z,32.55
2023-01-06T10:49:05.307Z,31.42
2023-01-06T10:51:45.599Z,35.20
2023-01-06T10:54:18.017Z,30.55
2023-01-06T10:56:51.298Z,28.67
2023-01-06T10:59:17.877Z,29.25
2023-01-06T11:01:58.935Z,28.17
2023-01-06T11:04:27.934Z,28.90
2023-01-06T11:06:58.891Z,28.33
2023-01-06T11:09:25.412Z,26.30
2023-01-06T11:11:54.223Z,30.42
2023-01-06T11:14:25.037Z,26.38
2023-01-06T11:17:16.901Z,30.85
2023-01-06T11:19:45.665Z,26.58
2023-01-06T11:22:38.745Z,24.63
2023-01-06T11:25:20.059Z,22.15
2023-01-06T11:27:47.790Z,27.58
2023-01-06T11:30:30.795Z,30.98
2023-01-06T11:32:57.409Z,33.45
2023-01-06T11:35:30.244Z,95.45
2023-01-06T11:38:00.118Z,90.47
2023-01-06T11:40:29.964Z,84.28
2023-01-06T11:43:00.008Z,130.40
2023-01-06T11:45:40.107Z,94.80
2023-01-06T11:48:26.968Z,108.88
2023-01-06T11:51:02.271Z,95.95
2023-01-06T11:53:29.592Z,90.63
2023-01-06T11:56:06.684Z,74.05
2023-01-06T11:58:33.147Z,82.03
2023-01-06T12:01:07.324Z,77.55
2023-01-06T12:03:41.425Z,65.03
2023-01-06T12:06:14.038Z,42.53
2023-01-06T12:08:44.216Z,49.75
2023-01-06T12:11:18.769Z,59.92
2023-01-06T12:14:07.980Z,61.38
2023-01-06T12:16:57.625Z,57.90
2023-01-06T12:19:45.908Z,59.83
2023-01-06T12:22:32.971Z,55.30
2023-01-06T12:25:01.514Z,58.20
2023-01-06T12:27:34.534Z,50.60
2023-01-06T12:30:07.501Z,55.15
2023-01-06T12:32:42.503Z,46.83
2023-01-06T12:35:16.450Z,59.75
2023-01-06T12:37:48.997Z,100.82
2023-01-06T12:40:32.638Z,84.43
2023-01-06T12:43:16.931Z,73.10
2023-01-06T12:46:05.065Z,80.93
2023-01-06T12:48:50.195Z,78.32
2023-01-06T12:51:23.788Z,65.97
2023-01-06T12:53:57.970Z,60.70
2023-01-06T12:57:01.224Z,68.68
2023-01-06T12:59:56.483Z,53.65
2023-01-06T13:02:50.619Z,53.42
2023-01-06T13:05:58.361Z,47.33
2023-01-06T13:08:34.133Z,47.58
2023-01-06T13:11:13.440Z,48.97
2023-01-06T13:13:57.961Z,46.90
2023-01-06T13:16:38.731Z,39.33
2023-01-06T13:19:23.453Z,45.83
2023-01-06T13:21:53.469Z,44.38
2023-01-06T13:24:41.031Z,85.65
2023-01-06T13:27:52.684Z,63.03
2023-01-06T13:30:33.049Z,68.97
2023-01-06T13:33:22.858Z,69.15
2023-01-06T13:36:04.662Z,66.10
2023-01-06T13:38:53.974Z,65.63
2023-01-06T13:41:26.429Z,69.20
2023-01-06T13:43:55.107Z,61.72
2023-01-06T13:46:24.514Z,64.80
2023-01-06T13:48:55.302Z,67.90
2023-01-06T13:51:27.035Z,64.10
2023-01-06T13:53:54.957Z,67.68
2023-01-06T13:56:21.431Z,64.18
2023-01-06T13:58:50.890Z,60.70
2023-01-06T14:01:20.392Z,52.88
2023-01-06T14:03:49.731Z,58.50
2023-01-06T14:06:22.290Z,46.38
2023-01-06T14:08:52.879Z,52.65
2023-01-06T14:11:28.095Z,50.22
2023-01-06T14:13:57.803Z,46.30
2023-01-06T14:16:43.630Z,48.10
2023-01-06T14:19:52.419Z,45.58
2023-01-06T14:22:26.130Z,53.30
2023-01-06T14:27:45.364Z,56.63
2023-01-06T14:30:39.249Z,57.67
2023-01-06T14:33:27.544Z,54.20
2023-01-06T14:36:03.325Z,63.13
2023-01-06T14:38:57.713Z,67.75
2023-01-06T14:41:36.557Z,56.95
2023-01-06T14:44:13.572Z,59.80
2023-01-06T14:46:45.484Z,63.13
2023-01-06T14:49:19.721Z,55.53
2023-01-06T14:51:47.479Z,64.72
2023-01-06T14:54:24.475Z,54.78
2023-01-06T14:56:56.203Z,61.78
2023-01-06T14:59:23.170Z,67.65
2023-01-06T15:02:02.331Z,60.22
2023-01-06T15:04:34.798Z,60.40
2023-01-06T15:07:19.601Z,58.00
2023-01-06T15:09:47.975Z,63.88
2023-01-06T15:12:27.215Z,63.83
2023-01-06T15:14:54.262Z,54.92
2023-01-06T15:17:21.393Z,66.05
2023-01-06T15:19:50.051Z,57.03
2023-01-06T15:22:23.582Z,52.70
2023-01-06T15:24:50.294Z,54.17
2023-01-06T15:27:18.747Z,52.58
2023-01-06T15:29:55.792Z,49.85
2023-01-06T15:32:25.963Z,44.10
2023-01-06T15:34:56.447Z,48.70
2023-01-06T15:37:25.604Z,44.08
2023-01-06T15:39:53.478Z,45.00
2023-01-06T15:42:23.605Z,43.08
2023-01-06T15:44:56.782Z,43.83
2023-01-06T15:47:32.412Z,46.65
2023-01-06T15:50:03.464Z,46.10
2023-01-06T15:52:36.744Z,57.78
2023-01-06T15:55:19.439Z,47.55
2023-01-06T15:57:57.254Z,50.60
2023-01-06T16:00:26.812Z,53.40
2023-01-06T16:02:53.706Z,47.72
2023-01-06T16:05:43.032Z,42.22
2023-01-06T16:08:24.364Z,50.47
2023-01-06T16:11:09.408Z,45.22
2023-01-06T16:13:36.004Z,45.67
2023-01-06T16:16:33.114Z,50.28
2023-01-06T16:19:08.848Z,49.47
2023-01-06T16:21:35.657Z,48.53
2023-01-06T16:24:05.454Z,51.55
2023-01-06T16:26:42.459Z,52.13
2023-01-06T16:29:37.457Z,51.92
2023-01-06T16:32:33.805Z,53.60
2023-01-06T16:35:11.782Z,55.13
2023-01-06T16:37:38.367Z,57.20
2023-01-06T16:40:05.454Z,60.53
2023-01-06T16:42:39.951Z,65.03
2023-01-06T16:45:27.964Z,72.82
2023-01-06T16:47:55.327Z,76.47
2023-01-06T16:50:23.358Z,83.13
2023-01-06T16:53:21.878Z,72.25
2023-01-06T16:55:53.908Z,82.93
2023-01-06T16:58:28.349Z,75.47
2023-01-06T17:00:58.249Z,77.90
2023-01-06T17:03:37.076Z,74.22
2023-01-06T17:06:04.374Z,75.97
2023-01-06T17:08:34.706Z,69.50
2023-01-06T17:11:06.963Z,71.32
2023-01-06T17:13:36.431Z,71.75
2023-01-06T17:16:16.975Z,72.25
2023-01-06T17:19:23.236Z,71.70
2023-01-06T17:21:52.758Z,67.68
2023-01-06T17:24:25.619Z,69.60
2023-01-06T17:27:02.318Z,60.63
2023-01-06T17:29:33.279Z,67.60
2023-01-06T17:32:02.909Z,61.95
2023-01-06T17:34:33.575Z,58.85
2023-01-06T17:37:12.335Z,59.78
2023-01-06T17:39:44.723Z,57.97
2023-01-06T17:42:11.180Z,58.97
2023-01-06T17:44:40.243Z,54.05
2023-01-06T17:47:35.201Z,52.22
2023-01-06T17:50:23.118Z,51.60
2023-01-06T17:53:09.796Z,48.25
2023-01-06T17:55:48.676Z,48.92
2023-01-06T17:58:22.024Z,46.35
2023-01-06T18:00:48.666Z,45.53
2023-01-06T18:03:22.454Z,46.15
2023-01-06T18:08:17.111Z,50.40
2023-01-06T18:10:45.972Z,53.20
2023-01-06T18:13:18.442Z,56.75
2023-01-06T18:15:53.322Z,56.85
2023-01-06T18:18:32.841Z,55.03
2023-01-06T18:21:05.204Z,54.85
2023-01-06T18:23:34.515Z,58.88
2023-01-06T18:26:25.765Z,60.90
2023-01-06T18:29:17.560Z,59.92
2023-01-06T18:31:46.256Z,58.75
2023-01-06T18:34:40.000Z,60.90
2023-01-06T18:37:06.908Z,64.60
2023-01-06T18:39:42.832Z,60.97
2023-01-06T18:42:29.474Z,59.78
2023-01-06T18:45:02.059Z,56.97
2023-01-06T18:47:30.413Z,57.65
2023-01-06T18:50:13.919Z,57.03
2023-01-06T18:52:46.208Z,57.70
2023-01-06T18:55:19.496Z,56.70
2023-01-06T18:57:54.898Z,57.90
2023-01-06T19:00:41.216Z,63.00
2023-01-06T19:03:26.394Z,63.88
2023-01-06T19:05:59.263Z,65.28
2023-01-06T19:08:35.345Z,77.57
2023-01-06T19:11:03.650Z,79.20
2023-01-06T19:13:30.383Z,81.03
2023-01-06T19:16:02.527Z,85.10
2023-01-06T19:18:33.970Z,85.82
2023-01-06T19:21:04.018Z,79.03
2023-01-06T19:23:32.103Z,81.22
2023-01-06T19:26:11.970Z,78.68
2023-01-06T19:28:38.514Z,77.82
2023-01-06T19:31:05.817Z,83.57
2023-01-06T19:33:59.405Z,79.43
2023-01-06T19:36:42.763Z,81.97
2023-01-06T19:39:36.362Z,78.40
2023-01-06T19:42:27.069Z,80.50
2023-01-06T19:44:57.177Z,83.80
2023-01-06T19:47:31.889Z,76.72
2023-01-06T19:50:07.038Z,74.38
2023-01-06T19:52:39.319Z,95.55
2023-01-06T19:55:30.334Z,87.25
2023-01-06T19:58:02.434Z,79.15
2023-01-06T20:00:41.572Z,85.15
2023-01-06T20:03:42.005Z,85.38
2023-01-06T20:06:08.543Z,83.32
2023-01-06T20:08:35.070Z,85.38
2023-01-06T20:11:01.697Z,86.63
2023-01-06T20:13:28.200Z,89.95
2023-01-06T20:15:54.735Z,96.95
2023-01-06T20:18:21.391Z,100.20
2023-01-06T20:20:47.883Z,100.45
2023-01-06T20:23:14.477Z,86.65
2023-01-06T20:25:41.130Z,88.07
2023-01-06T20:28:07.955Z,89.45
2023-01-06T20:30:34.485Z,92.28
2023-01-06T20:33:02.088Z,93.18
2023-01-06T20:35:28.847Z,86.32
2023-01-06T20:37:55.389Z,77.57
2023-01-06T20:40:21.973Z,74.15
2023-01-06T20:42:48.527Z,72.53
2023-01-06T20:45:15.063Z,70.88
2023-01-06T20:47:43.701Z,62.92
2023-01-06T20:50:13.647Z,69.05
2023-01-06T20:52:41.811Z,64.30
2023-01-06T20:55:09.208Z,57.00
2023-01-06T20:57:35.822Z,64.32
2023-01-06T21:00:02.591Z,62.03
2023-01-06T21:02:29.324Z,54.15
2023-01-06T21:04:55.915Z,58.40
2023-01-06T21:07:22.543Z,56.25
2023-01-06T21:09:49.098Z,58.80
2023-01-06T21:12:15.646Z,52.50
2023-01-06T21:14:42.197Z,47.15
2023-01-06T21:17:08.710Z,48.67
2023-01-06T21:19:35.343Z,49.63
2023-01-06T21:22:01.908Z,44.55
2023-01-06T21:24:28.440Z,41.20
2023-01-06T21:26:54.939Z,45.38
2023-01-06T21:29:21.635Z,38.17
2023-01-06T21:31:48.266Z,37.08
2023-01-06T21:34:14.795Z,33.90
2023-01-06T21:36:41.349Z,36.63
2023-01-06T21:39:09.574Z,38.00
2023-01-06T21:41:54.871Z,35.20
2023-01-06T21:44:21.689Z,33.28
2023-01-06T21:46:48.249Z,30.58
2023-01-06T21:49:14.857Z,29.02
2023-01-06T21:51:42.004Z,28.02
2023-01-06T21:54:08.636Z,29.63
2023-01-06T21:56:35.780Z,28.40
2023-01-06T21:59:02.613Z,22.63
2023-01-06T22:01:29.899Z,23.67
2023-01-06T22:03:56.541Z,25.98
2023-01-06T22:06:23.808Z,21.33
2023-01-06T22:08:53.463Z,23.58
2023-01-06T22:11:20.216Z,22.95
2023-01-06T22:13:47.022Z,22.08
2023-01-06T22:16:13.878Z,19.42
2023-01-06T22:18:40.762Z,20.27
2023-01-06T22:21:07.384Z,21.17
2023-01-06T22:23:34.953Z,23.13
2023-01-06T22:26:01.524Z,19.23
2023-01-06T22:28:28.071Z,19.80
2023-01-06T22:30:55.112Z,19.48
2023-01-06T22:33:21.880Z,19.88
2023-01-06T22:35:48.570Z,18.58
2023-01-06T22:38:15.111Z,17.00
2023-01-06T22:40:41.670Z,18.42
2023-01-06T22:43:08.285Z,19.02
2023-01-06T22:45:35.094Z,18.50
2023-01-06T22:48:01.679Z,18.92
2023-01-06T22:50:28.210Z,19.10
2023-01-06T22:52:56.358Z,17.95
2023-01-06T22:55:22.935Z,15.90
2023-01-06T22:57:49.551Z,16.10
2023-01-06T23:00:18.334Z,16.60
2023-01-06T23:02:45.050Z,15.50
2023-01-06T23:05:11.733Z,16.50
2023-01-06T23:07:42.662Z,15.85
2023-01-06T23:10:11.471Z,17.08
2023-01-06T23:12:39.384Z,16.27
2023-01-06T23:15:07.414Z,14.05
2023-01-06T23:17:36.305Z,13.63
2023-01-06T23:20:03.303Z,13.52
2023-01-06T23:22:29.813Z,13.82
2023-01-06T23:24:56.308Z,13.57
2023-01-06T23:27:22.854Z,13.45
2023-01-06T23:29:49.451Z,14.30
2023-01-06T23:32:15.989Z,15.93
2023-01-06T23:34:42.535Z,13.63
2023-01-06T23:37:09.026Z,12.68
2023-01-06T23:39:35.533Z,11.50
2023-01-06T23:42:04.266Z,11.38
2023-01-06T23:44:30.803Z,11.48
2023-01-06T23:46:57.326Z,12.93
2023-01-06T23:49:23.859Z,13.68
2023-01-06T23:51:50.397Z,12.93
2023-01-06T23:54:17.073Z,12.07
2023-01-06T23:56:43.601Z,11.60
2023-01-06T23:59:12.332Z,12.18
